Colinas, Brazil
Current Conditions -  °F | °C
As of 2:00 PM on Friday 31 Oct 2014 (Local Time) from SBCO Reporting Station
Scattered Clouds Scattered Clouds  
Wind Chill: 82°   Ceiling: Unl
Heat Index: 85°   Visibility: 6mi
Dew Point: 66°   Wind: 14mph
Humidity: 58%   Direction: 160°SSE
Pressure: 29.85"   Gusts: NA
Location:  29.39°S, 51.87°W
Report Text: SBCO 311600Z 16012KT 9999 SCT030 28/19 Q1011
Loading
Personal Weather Stations






























Interactive Weather Map
Tropical Storm Tracking
New forecast layout! Learn more

10-Day Weather Forecast

Advertisements
Track Severe Weather on mobile